createdAt,value
2022-10-21T00:01:51.304Z,100420.34
2022-10-21T00:04:18.148Z,100421.85
2022-10-21T00:06:46.834Z,100422.86
2022-10-21T00:09:13.610Z,100418.13
2022-10-21T00:11:40.255Z,100410.45
2022-10-21T00:14:07.021Z,100407.36
2022-10-21T00:16:33.756Z,100406.10
2022-10-21T00:19:00.471Z,100405.42
2022-10-21T00:21:27.221Z,100402.23
2022-10-21T00:23:53.943Z,100401.70
2022-10-21T00:26:21.080Z,100409.13
2022-10-21T00:28:47.800Z,100413.70
2022-10-21T00:31:15.359Z,100418.89
2022-10-21T00:33:42.267Z,100417.22
2022-10-21T00:36:14.576Z,100418.77
2022-10-21T00:38:42.385Z,100423.60
2022-10-21T00:41:09.096Z,100427.56
2022-10-21T00:44:02.044Z,100429.30
2022-10-21T00:46:38.358Z,100425.75
2022-10-21T00:49:21.580Z,100423.41
2022-10-21T00:51:50.098Z,100431.96
2022-10-21T00:54:16.827Z,100434.91
2022-10-21T00:56:44.548Z,100439.79
2022-10-21T00:59:11.449Z,100440.42
2022-10-21T01:01:38.232Z,100433.81
2022-10-21T01:04:05.937Z,100430.38
2022-10-21T01:06:32.661Z,100427.52
2022-10-21T01:08:59.392Z,100428.80
2022-10-21T01:11:26.154Z,100425.36
2022-10-21T01:14:12.208Z,100420.42
2022-10-21T01:17:20.360Z,100420.64
2022-10-21T01:20:15.803Z,100423.22
2022-10-21T01:23:10.601Z,100416.77
2022-10-21T01:25:59.191Z,100417.50
2022-10-21T01:28:44.335Z,100416.92
2022-10-21T01:31:36.898Z,100421.67
2022-10-21T01:34:03.588Z,100425.91
2022-10-21T01:36:55.384Z,100431.75
2022-10-21T01:39:41.971Z,100442.59
2022-10-21T01:42:20.596Z,100444.23
2022-10-21T01:45:07.723Z,100445.92
2022-10-21T01:47:36.773Z,100442.79
2022-10-21T01:50:08.662Z,100443.48
2022-10-21T01:52:35.534Z,100448.39
2022-10-21T01:55:07.151Z,100447.20
2022-10-21T01:57:37.155Z,100449.75
2022-10-21T02:00:04.704Z,100454.70
2022-10-21T02:02:32.986Z,100453.36
2022-10-21T02:05:01.649Z,100453.20
2022-10-21T02:07:28.427Z,100449.09
2022-10-21T02:09:55.136Z,100447.33
2022-10-21T02:12:22.489Z,100452.27
2022-10-21T02:14:50.156Z,100454.80
2022-10-21T02:17:18.923Z,100455.05
2022-10-21T02:19:46.534Z,100451.92
2022-10-21T02:22:14.838Z,100457.34
2022-10-21T02:24:51.371Z,100456.02
2022-10-21T02:27:18.675Z,100461.98
2022-10-21T02:29:45.748Z,100455.54
2022-10-21T02:32:30.728Z,100454.48
2022-10-21T02:35:21.741Z,100443.64
2022-10-21T02:37:54.173Z,100458.14
2022-10-21T02:40:24.549Z,100461.61
2022-10-21T02:42:54.092Z,100460.98
2022-10-21T02:45:21.240Z,100461.60
2022-10-21T02:47:48.302Z,100467.08
2022-10-21T02:50:15.289Z,100473.31
2022-10-21T02:52:42.002Z,100473.02
2022-10-21T02:55:09.017Z,100466.93
2022-10-21T02:57:35.855Z,100478.20
2022-10-21T03:00:02.924Z,100474.27
2022-10-21T03:02:29.548Z,100471.01
2022-10-21T03:04:56.253Z,100467.98
2022-10-21T03:07:22.930Z,100482.19
2022-10-21T03:09:49.641Z,100473.27
2022-10-21T03:12:16.343Z,100478.50
2022-10-21T03:14:43.049Z,100480.08
2022-10-21T03:17:09.734Z,100482.94
2022-10-21T03:19:36.426Z,100485.24
2022-10-21T03:22:03.139Z,100479.68
2022-10-21T03:24:29.885Z,100478.03
2022-10-21T03:26:56.605Z,100478.23
2022-10-21T03:29:23.323Z,100473.08
2022-10-21T03:31:50.036Z,100468.05
2022-10-21T03:34:16.857Z,100469.90
2022-10-21T03:36:43.533Z,100474.86
2022-10-21T03:39:11.116Z,100480.14
2022-10-21T03:41:37.985Z,100475.20
2022-10-21T03:44:04.722Z,100472.45
2022-10-21T03:46:31.425Z,100470.94
2022-10-21T03:49:02.830Z,100476.88
2022-10-21T03:51:31.329Z,100470.64
2022-10-21T03:53:58.151Z,100468.00
2022-10-21T03:56:24.844Z,100464.52
2022-10-21T03:58:54.002Z,100464.82
2022-10-21T04:01:24.647Z,100470.52
2022-10-21T04:03:51.435Z,100469.15
2022-10-21T04:06:18.142Z,100468.64
2022-10-21T04:08:44.912Z,100474.14
2022-10-21T04:11:11.812Z,100468.04
2022-10-21T04:13:38.599Z,100470.99
2022-10-21T04:16:07.198Z,100474.35
2022-10-21T04:18:34.478Z,100473.05
2022-10-21T04:21:01.212Z,100477.95
2022-10-21T04:23:27.940Z,100483.95
2022-10-21T04:25:54.626Z,100482.17
2022-10-21T04:28:21.368Z,100482.77
2022-10-21T04:30:49.791Z,100487.80
2022-10-21T04:33:16.520Z,100485.18
2022-10-21T04:35:43.265Z,100484.08
2022-10-21T04:38:10.033Z,100481.95
2022-10-21T04:40:36.785Z,100487.23
2022-10-21T04:43:03.681Z,100486.39
2022-10-21T04:45:30.305Z,100488.10
2022-10-21T04:47:57.098Z,100492.96
2022-10-21T04:50:23.738Z,100495.08
2022-10-21T04:52:51.668Z,100494.20
2022-10-21T04:55:18.367Z,100495.98
2022-10-21T04:57:45.185Z,100503.83
2022-10-21T05:00:12.617Z,100507.17
2022-10-21T05:02:39.626Z,100503.62
2022-10-21T05:05:06.916Z,100499.98
2022-10-21T05:07:33.663Z,100500.04
2022-10-21T05:10:00.399Z,100494.51
2022-10-21T05:12:27.161Z,100483.40
2022-10-21T05:14:53.883Z,100493.13
2022-10-21T05:17:20.599Z,100488.77
2022-10-21T05:19:47.317Z,100485.71
2022-10-21T05:22:14.060Z,100494.53
2022-10-21T05:24:40.762Z,100487.42
2022-10-21T05:27:07.505Z,100488.22
2022-10-21T05:29:34.203Z,100491.41
2022-10-21T05:32:00.965Z,100487.85
2022-10-21T05:34:27.673Z,100494.79
2022-10-21T05:36:54.396Z,100499.77
2022-10-21T05:39:21.117Z,100494.34
2022-10-21T05:41:48.241Z,100499.27
2022-10-21T05:44:15.229Z,100501.48
2022-10-21T05:46:41.888Z,100497.86
2022-10-21T05:49:08.703Z,100500.54
2022-10-21T05:51:35.400Z,100508.15
2022-10-21T05:54:03.950Z,100507.98
2022-10-21T05:56:30.860Z,100509.64
2022-10-21T05:58:57.507Z,100508.33
2022-10-21T06:01:24.291Z,100515.92
2022-10-21T06:03:50.981Z,100514.09
2022-10-21T06:06:17.689Z,100511.75
2022-10-21T06:08:44.561Z,100516.97
2022-10-21T06:11:12.156Z,100512.83
2022-10-21T06:13:38.934Z,100517.25
2022-10-21T06:18:37.751Z,100511.92
2022-10-21T06:21:04.750Z,100511.83
2022-10-21T06:23:31.901Z,100508.91
2022-10-21T06:26:00.162Z,100513.98
2022-10-21T06:28:27.455Z,100510.59
2022-10-21T06:30:54.178Z,100515.51
2022-10-21T06:33:26.059Z,100518.55
2022-10-21T06:35:54.692Z,100513.52
2022-10-21T06:38:21.408Z,100520.58
2022-10-21T06:40:48.879Z,100519.14
2022-10-21T06:43:16.672Z,100520.40
2022-10-21T06:45:43.538Z,100522.72
2022-10-21T06:48:10.401Z,100521.11
2022-10-21T06:50:37.471Z,100522.30
2022-10-21T06:53:04.353Z,100532.05
2022-10-21T06:55:30.958Z,100531.98
2022-10-21T06:57:59.208Z,100525.63
2022-10-21T07:00:26.115Z,100533.14
2022-10-21T07:02:53.009Z,100532.91
2022-10-21T07:05:19.780Z,100531.17
2022-10-21T07:07:46.508Z,100531.02
2022-10-21T07:10:13.302Z,100529.55
2022-10-21T07:12:39.957Z,100531.36
2022-10-21T07:15:07.091Z,100536.31
2022-10-21T07:17:33.796Z,100540.91
2022-10-21T07:20:00.631Z,100538.46
2022-10-21T07:22:27.300Z,100542.01
2022-10-21T07:24:54.059Z,100541.13
2022-10-21T07:27:20.726Z,100535.57
2022-10-21T07:29:47.485Z,100532.34
2022-10-21T07:32:14.276Z,100536.39
2022-10-21T07:34:40.936Z,100532.46
2022-10-21T07:37:07.672Z,100537.93
2022-10-21T07:39:35.199Z,100537.05
2022-10-21T07:42:02.280Z,100539.52
2022-10-21T07:44:29.281Z,100537.84
2022-10-21T07:46:56.270Z,100540.58
2022-10-21T07:49:23.738Z,100541.59
2022-10-21T07:51:50.594Z,100537.68
2022-10-21T07:54:17.607Z,100541.77
2022-10-21T07:56:46.532Z,100546.02
2022-10-21T07:59:13.845Z,100544.05
2022-10-21T08:01:44.728Z,100552.80
2022-10-21T08:04:13.953Z,100544.96
2022-10-21T08:06:41.122Z,100548.31
2022-10-21T08:09:08.006Z,100550.17
2022-10-21T08:11:34.946Z,100549.39
2022-10-21T08:14:03.158Z,100552.23
2022-10-21T08:16:29.875Z,100548.46
2022-10-21T08:18:56.795Z,100552.48
2022-10-21T08:21:23.547Z,100550.08
2022-10-21T08:23:50.300Z,100548.59
2022-10-21T08:26:17.151Z,100549.76
2022-10-21T08:28:43.871Z,100542.64
2022-10-21T08:31:12.416Z,100545.30
2022-10-21T08:33:39.351Z,100543.00
2022-10-21T08:36:13.687Z,100541.61
2022-10-21T08:38:40.414Z,100539.05
2022-10-21T08:41:29.589Z,100538.68
2022-10-21T08:44:10.972Z,100540.46
2022-10-21T08:46:46.674Z,100536.08
2022-10-21T08:49:23.218Z,100534.92
2022-10-21T08:51:55.493Z,100539.83
2022-10-21T08:54:44.411Z,100535.98
2022-10-21T08:57:11.528Z,100545.14
2022-10-21T08:59:42.014Z,100548.55
2022-10-21T09:02:27.563Z,100544.98
2022-10-21T09:05:19.337Z,100547.36
2022-10-21T09:07:55.150Z,100545.23
2022-10-21T09:10:27.996Z,100542.03
2022-10-21T09:16:54.612Z,100540.88
2022-10-21T09:19:23.928Z,100539.01
2022-10-21T09:22:22.510Z,100536.58
2022-10-21T09:24:59.036Z,100538.55
2022-10-21T09:27:31.959Z,100533.64
2022-10-21T09:30:06.800Z,100535.96
2022-10-21T09:32:36.191Z,100535.69
2022-10-21T09:35:05.826Z,100536.70
2022-10-21T09:37:42.207Z,100535.92
2022-10-21T09:40:20.431Z,100534.79
2022-10-21T09:42:49.806Z,100535.38
2022-10-21T09:45:21.873Z,100531.18
2022-10-21T09:47:54.951Z,100531.30
2022-10-21T09:50:21.732Z,100530.27
2022-10-21T09:52:49.488Z,100529.13
2022-10-21T09:55:16.365Z,100520.64
2022-10-21T09:57:48.233Z,100511.79
2022-10-21T10:00:15.041Z,100513.84
2022-10-21T10:02:43.728Z,100511.11
2022-10-21T10:05:36.931Z,100508.58
2022-10-21T10:08:28.757Z,100508.48
2022-10-21T10:11:22.053Z,100499.11
2022-10-21T10:13:50.352Z,100495.97
2022-10-21T10:16:26.253Z,100490.83
2022-10-21T10:19:09.778Z,100489.91
2022-10-21T10:21:36.494Z,100493.48
2022-10-21T10:24:03.379Z,100488.36
2022-10-21T10:26:30.811Z,100488.90
2022-10-21T10:29:20.815Z,100483.16
2022-10-21T10:31:50.787Z,100485.41
2022-10-21T10:34:27.730Z,100488.13
2022-10-21T10:37:03.568Z,100486.76
2022-10-21T10:39:31.477Z,100487.09
2022-10-21T10:41:58.214Z,100485.13
2022-10-21T10:44:37.007Z,100478.88
2022-10-21T10:47:04.504Z,100483.71
2022-10-21T10:49:37.220Z,100481.13
2022-10-21T10:52:10.002Z,100480.05
2022-10-21T10:54:37.705Z,100474.53
2022-10-21T10:57:18.682Z,100463.35
2022-10-21T10:59:48.897Z,100455.91
2022-10-21T11:02:26.372Z,100449.95
2022-10-21T11:05:27.442Z,100451.03
2022-10-21T11:07:56.060Z,100443.83
2022-10-21T11:10:33.429Z,100442.02
2022-10-21T11:13:00.691Z,100440.65
2022-10-21T11:15:52.131Z,100435.80
2022-10-21T11:18:34.925Z,100434.85
2022-10-21T11:21:26.061Z,100432.38
2022-10-21T11:24:11.239Z,100431.41
2022-10-21T11:27:00.687Z,100425.83
2022-10-21T11:29:39.900Z,100424.48
2022-10-21T11:32:36.315Z,100412.65
2022-10-21T11:35:03.365Z,100408.04
2022-10-21T11:37:49.218Z,100406.90
2022-10-21T11:40:20.342Z,100399.70
2022-10-21T11:42:48.586Z,100394.26
2022-10-21T11:45:30.208Z,100396.78
2022-10-21T11:48:19.364Z,100397.78
2022-10-21T11:50:49.642Z,100397.02
2022-10-21T11:53:28.391Z,100400.20
2022-10-21T11:56:06.981Z,100396.92
2022-10-21T11:58:53.589Z,100401.04
2022-10-21T12:01:26.942Z,100403.86
2022-10-21T12:04:04.768Z,100398.65
2022-10-21T12:06:35.602Z,100393.02
2022-10-21T12:09:04.961Z,100392.23
2022-10-21T12:11:46.624Z,100388.19
2022-10-21T12:14:28.843Z,100386.25
2022-10-21T12:16:58.788Z,100392.98
2022-10-21T12:19:25.531Z,100385.11
2022-10-21T12:21:52.266Z,100387.02
2022-10-21T12:24:31.161Z,100389.98
2022-10-21T12:27:41.828Z,100393.84
2022-10-21T12:30:16.981Z,100393.94
2022-10-21T12:32:49.497Z,100392.73
2022-10-21T12:35:21.432Z,100391.19
2022-10-21T12:37:50.791Z,100388.34
2022-10-21T12:40:35.231Z,100387.83
2022-10-21T12:43:06.001Z,100387.48
2022-10-21T12:45:37.324Z,100387.16
2022-10-21T12:48:07.454Z,100383.98
2022-10-21T12:50:34.187Z,100380.27
2022-10-21T12:53:05.914Z,100378.13
2022-10-21T12:55:39.629Z,100376.63
2022-10-21T12:58:13.552Z,100376.11
2022-10-21T13:00:43.361Z,100374.20
2022-10-21T13:03:14.406Z,100380.27
2022-10-21T13:05:41.096Z,100377.35
2022-10-21T13:08:20.124Z,100370.88
2022-10-21T13:11:05.287Z,100370.89
2022-10-21T13:13:38.888Z,100368.48
2022-10-21T13:16:20.962Z,100364.14
2022-10-21T13:18:50.948Z,100368.84
2022-10-21T13:21:29.849Z,100370.53
2022-10-21T13:24:13.500Z,100372.49
2022-10-21T13:26:57.353Z,100377.90
2022-10-21T13:29:34.565Z,100377.48
2022-10-21T13:32:19.521Z,100380.73
2022-10-21T13:35:05.493Z,100380.48
2022-10-21T13:37:39.384Z,100383.02
2022-10-21T13:40:14.607Z,100383.80
2022-10-21T13:42:43.614Z,100384.73
2022-10-21T13:45:25.475Z,100383.73
2022-10-21T13:48:12.856Z,100386.40
2022-10-21T13:50:41.183Z,100390.55
2022-10-21T13:53:28.587Z,100390.71
2022-10-21T13:56:06.167Z,100386.16
2022-10-21T13:58:39.392Z,100388.48
2022-10-21T14:01:15.138Z,100382.11
2022-10-21T14:03:42.397Z,100377.77
2022-10-21T14:06:09.678Z,100376.67
2022-10-21T14:08:43.817Z,100378.80
2022-10-21T14:11:34.819Z,100375.38
2022-10-21T14:14:07.003Z,100376.59
2022-10-21T14:16:35.465Z,100378.73
2022-10-21T14:19:05.460Z,100375.47
2022-10-21T14:21:34.503Z,100367.97
2022-10-21T14:24:01.216Z,100365.02
2022-10-21T14:26:31.088Z,100367.14
2022-10-21T14:28:59.719Z,100365.28
2022-10-21T14:31:26.507Z,100361.39
2022-10-21T14:33:53.172Z,100361.29
2022-10-21T14:36:23.266Z,100365.61
2022-10-21T14:38:58.811Z,100367.90
2022-10-21T14:41:34.850Z,100366.13
2022-10-21T14:44:12.978Z,100358.30
2022-10-21T14:46:41.533Z,100353.49
2022-10-21T14:49:19.125Z,100353.27
2022-10-21T14:51:46.028Z,100359.22
2022-10-21T14:54:57.630Z,100354.67
2022-10-21T14:57:30.480Z,100358.58
2022-10-21T14:59:57.170Z,100357.11
2022-10-21T15:02:28.773Z,100355.58
2022-10-21T15:04:57.254Z,100355.77
2022-10-21T15:07:36.921Z,100360.41
2022-10-21T15:10:03.745Z,100365.58
2022-10-21T15:12:50.491Z,100363.55
2022-10-21T15:15:51.061Z,100362.05
2022-10-21T15:18:23.382Z,100364.64
2022-10-21T15:20:55.101Z,100364.35
2022-10-21T15:23:28.501Z,100365.14
2022-10-21T15:26:05.703Z,100370.73
2022-10-21T15:28:33.584Z,100367.50
2022-10-21T15:31:00.653Z,100379.12
2022-10-21T15:33:27.455Z,100377.63
2022-10-21T15:36:02.734Z,100380.65
2022-10-21T15:38:29.581Z,100382.48
2022-10-21T15:40:56.450Z,100383.41
2022-10-21T15:43:23.317Z,100381.68
2022-10-21T15:45:50.101Z,100386.20
2022-10-21T15:48:16.970Z,100390.21
2022-10-21T15:50:44.529Z,100392.16
2022-10-21T15:53:11.692Z,100397.40
2022-10-21T15:55:39.032Z,100397.66
2022-10-21T15:58:06.518Z,100400.08
2022-10-21T16:00:38.636Z,100398.92
2022-10-21T16:03:07.889Z,100398.79
2022-10-21T16:05:34.754Z,100394.17
2022-10-21T16:08:01.549Z,100396.35
2022-10-21T16:10:34.453Z,100392.34
2022-10-21T16:13:01.357Z,100394.69
2022-10-21T16:15:28.134Z,100397.67
2022-10-21T16:17:56.795Z,100399.08
2022-10-21T16:20:25.516Z,100399.22
2022-10-21T16:22:52.372Z,100391.83
2022-10-21T16:25:19.241Z,100392.39
2022-10-21T16:27:55.629Z,100392.77
2022-10-21T16:30:28.294Z,100389.85
2022-10-21T16:32:55.378Z,100384.44
2022-10-21T16:35:22.257Z,100377.23
2022-10-21T16:37:49.144Z,100369.33
2022-10-21T16:40:23.424Z,100367.34
2022-10-21T16:42:50.599Z,100367.80
2022-10-21T16:45:18.354Z,100365.29
2022-10-21T16:47:48.600Z,100363.98
2022-10-21T16:50:40.878Z,100360.88
2022-10-21T16:53:09.662Z,100361.58
2022-10-21T16:55:36.515Z,100357.21
2022-10-21T16:58:03.302Z,100350.70
2022-10-21T17:00:30.185Z,100347.67
2022-10-21T17:02:59.007Z,100341.48
2022-10-21T17:05:26.234Z,100346.09
2022-10-21T17:07:53.968Z,100342.30
2022-10-21T17:10:20.816Z,100342.48
2022-10-21T17:12:47.568Z,100334.98
2022-10-21T17:15:15.377Z,100327.49
2022-10-21T17:17:42.340Z,100328.17
2022-10-21T17:20:09.899Z,100325.98
2022-10-21T17:22:36.753Z,100325.90
2022-10-21T17:25:03.615Z,100327.17
2022-10-21T17:27:32.786Z,100330.30
2022-10-21T17:29:59.700Z,100332.95
2022-10-21T17:32:26.501Z,100335.17
2022-10-21T17:34:53.342Z,100330.65
2022-10-21T17:37:20.577Z,100324.71
2022-10-21T17:39:47.492Z,100322.47
2022-10-21T17:42:14.736Z,100326.50
2022-10-21T17:44:41.680Z,100331.23
2022-10-21T17:47:08.604Z,100328.26
2022-10-21T17:49:36.577Z,100330.45
2022-10-21T17:52:03.377Z,100329.20
2022-10-21T17:54:32.660Z,100325.90
2022-10-21T17:57:02.115Z,100324.70
2022-10-21T17:59:29.249Z,100322.61
2022-10-21T18:01:56.074Z,100321.81
2022-10-21T18:04:22.895Z,100318.30
2022-10-21T18:06:49.866Z,100315.54
2022-10-21T18:09:16.819Z,100314.22
2022-10-21T18:11:43.816Z,100316.28
2022-10-21T18:14:10.865Z,100315.95
2022-10-21T18:16:37.655Z,100308.94
2022-10-21T18:19:04.536Z,100308.04
2022-10-21T18:21:31.679Z,100310.90
2022-10-21T18:23:59.590Z,100305.33
2022-10-21T18:26:33.443Z,100303.94
2022-10-21T18:29:01.794Z,100298.09
2022-10-21T18:31:30.230Z,100299.47
2022-10-21T18:33:57.398Z,100296.20
2022-10-21T18:36:24.428Z,100296.87
2022-10-21T18:38:51.383Z,100301.96
2022-10-21T18:41:20.829Z,100302.54
2022-10-21T18:43:53.265Z,100298.89
2022-10-21T18:46:20.190Z,100303.53
2022-10-21T18:48:47.504Z,100304.41
2022-10-21T18:51:16.152Z,100300.58
2022-10-21T18:53:46.110Z,100299.94
2022-10-21T18:56:15.902Z,100307.04
2022-10-21T18:58:42.916Z,100301.71
2022-10-21T19:01:10.591Z,100301.48
2022-10-21T19:03:37.623Z,100299.46
2022-10-21T19:06:17.494Z,100303.58
2022-10-21T19:08:44.553Z,100303.19
2022-10-21T19:11:11.468Z,100307.76
2022-10-21T19:13:38.386Z,100310.21
2022-10-21T19:16:05.679Z,100309.23
2022-10-21T19:18:32.546Z,100309.23
2022-10-21T19:20:59.312Z,100306.20
2022-10-21T19:23:27.952Z,100308.81
2022-10-21T19:25:54.895Z,100307.75
2022-10-21T19:28:21.702Z,100308.70
2022-10-21T19:30:48.748Z,100309.36
2022-10-21T19:33:15.840Z,100306.92
2022-10-21T19:35:42.713Z,100311.20
2022-10-21T19:38:15.465Z,100312.67
2022-10-21T19:43:19.415Z,100307.02
2022-10-21T19:45:46.260Z,100303.64
2022-10-21T19:48:16.071Z,100302.82
2022-10-21T19:50:47.045Z,100301.64
2022-10-21T19:53:13.989Z,100302.34
2022-10-21T19:55:40.811Z,100304.91
2022-10-21T19:58:07.656Z,100302.34
2022-10-21T20:00:34.735Z,100298.48
2022-10-21T20:03:01.559Z,100301.35
2022-10-21T20:05:31.592Z,100300.59
2022-10-21T20:07:58.487Z,100300.34
2022-10-21T20:10:25.304Z,100299.97
2022-10-21T20:12:52.188Z,100305.22
2022-10-21T20:15:18.971Z,100308.04
2022-10-21T20:17:46.096Z,100304.02
2022-10-21T20:20:13.089Z,100303.25
2022-10-21T20:22:42.476Z,100303.12
2022-10-21T20:25:09.660Z,100305.02
2022-10-21T20:27:36.967Z,100305.28
2022-10-21T20:30:04.635Z,100304.20
2022-10-21T20:32:31.913Z,100306.77
2022-10-21T20:34:58.984Z,100304.46
2022-10-21T20:37:25.820Z,100296.31
2022-10-21T20:39:52.640Z,100298.48
2022-10-21T20:42:19.584Z,100305.85
2022-10-21T20:44:46.551Z,100305.80
2022-10-21T20:47:13.404Z,100300.89
2022-10-21T20:49:40.117Z,100299.48
2022-10-21T20:52:06.862Z,100304.46
2022-10-21T20:54:33.656Z,100301.98
2022-10-21T20:57:00.532Z,100299.78
2022-10-21T20:59:27.382Z,100300.22
2022-10-21T21:01:54.218Z,100292.98
2022-10-21T21:04:23.743Z,100287.37
2022-10-21T21:06:51.178Z,100286.13
2022-10-21T21:12:05.916Z,100282.39
2022-10-21T21:14:32.602Z,100280.52
2022-10-21T21:16:59.296Z,100272.75
2022-10-21T21:19:26.118Z,100270.30
2022-10-21T21:21:53.253Z,100275.52
2022-10-21T21:24:20.023Z,100269.26
2022-10-21T21:26:46.705Z,100269.05
2022-10-21T21:29:13.584Z,100263.39
2022-10-21T21:33:25.790Z,100260.45
2022-10-21T21:35:52.592Z,100256.24
2022-10-21T21:38:19.331Z,100254.45
2022-10-21T21:40:46.181Z,100252.16
2022-10-21T21:43:13.220Z,100253.19
2022-10-21T21:45:40.777Z,100248.58
2022-10-21T21:48:07.569Z,100240.93
2022-10-21T21:50:34.312Z,100238.14
2022-10-21T21:53:01.037Z,100235.45
2022-10-21T21:55:27.752Z,100233.09
2022-10-21T21:57:54.487Z,100232.21
2022-10-21T22:00:21.319Z,100234.17
2022-10-21T22:02:48.188Z,100234.88
2022-10-21T22:05:14.918Z,100234.00
2022-10-21T22:07:42.033Z,100230.90
2022-10-21T22:10:09.775Z,100227.77
2022-10-21T22:12:36.579Z,100226.77
2022-10-21T22:15:03.433Z,100225.95
2022-10-21T22:17:30.180Z,100229.14
2022-10-21T22:19:57.102Z,100229.52
2022-10-21T22:22:23.735Z,100230.10
2022-10-21T22:24:50.490Z,100231.94
2022-10-21T22:27:17.243Z,100236.45
2022-10-21T22:29:43.964Z,100240.27
2022-10-21T22:32:12.642Z,100234.10
2022-10-21T22:34:39.794Z,100229.67
2022-10-21T22:37:06.531Z,100229.10
2022-10-21T22:39:33.231Z,100228.60
2022-10-21T22:42:00.075Z,100228.21
2022-10-21T22:44:26.995Z,100228.29
2022-10-21T22:46:53.726Z,100226.13
2022-10-21T22:49:20.539Z,100225.76
2022-10-21T22:51:47.270Z,100222.20
2022-10-21T22:54:29.629Z,100221.23
2022-10-21T22:57:01.011Z,100219.07
2022-10-21T22:59:27.745Z,100216.45
2022-10-21T23:01:54.468Z,100213.34
2022-10-21T23:04:21.732Z,100206.78
2022-10-21T23:06:48.431Z,100209.33
2022-10-21T23:09:15.255Z,100205.72
2022-10-21T23:11:41.906Z,100201.98
2022-10-21T23:14:09.582Z,100205.33
2022-10-21T23:16:36.831Z,100205.73
2022-10-21T23:19:04.077Z,100201.95
2022-10-21T23:21:31.037Z,100201.20
2022-10-21T23:23:57.650Z,100200.44
2022-10-21T23:26:24.392Z,100201.55
2022-10-21T23:28:51.111Z,100197.94
2022-10-21T23:31:17.791Z,100198.22
2022-10-21T23:33:44.565Z,100201.82
2022-10-21T23:36:11.287Z,100188.52
2022-10-21T23:38:38.034Z,100191.90
2022-10-21T23:41:04.798Z,100189.27
2022-10-21T23:43:31.501Z,100183.14
2022-10-21T23:45:58.250Z,100185.70
2022-10-21T23:48:24.986Z,100177.98
2022-10-21T23:50:51.719Z,100177.36
2022-10-21T23:53:18.445Z,100175.45
2022-10-21T23:55:45.214Z,100175.55
2022-10-21T23:58:11.925Z,100178.86
